Latest Coastal Weather Observations for Hindmarsh Island

IDS60701

Issued at 7:51 am CST Sunday 2 August 2015 (issued every 10 minutes, with the page automatically refreshed every 10 minutes)

About coastal observations | Map of coastal stations | Coastal observations for SA | Marine services | Other Formats
Station Details ID: 023894 Name: HINDMARSH ISLAND AWS Lat: -35.52 Lon: 138.82 Height: 11.0 m
Data from the previous 72 hours. | See also: Recent months at Hindmarsh Island
Date/Time
CST
Temp

°C
Wind Pressure Rain
since 9am
mm
Weather Cloud Vis
km
Sea
Height
m
Swell
Dir
 
Speed
knots
Gust
knots
hPa Trend Height
m
Period
s
Dir
02/07:30am 7.0 WNW 7 8 1018.3 - 1.2 - - - - - - -
02/07:00am 7.2 WNW 9 10 1018.2 - 1.2 - - - - - - -
02/06:30am 7.1 WNW 8 9 1017.8 - 1.2 - - - - - - -
02/06:00am 7.3 WNW 7 10 1017.5 - 1.2 - - - - - - -
02/05:30am 8.0 WNW 9 11 1017.4 - 1.2 - - - - - - -
02/05:00am 8.1 WNW 9 11 1017.3 - 1.2 - - - - - - -
02/04:30am 8.4 WNW 8 10 1017.4 - 1.2 - - - - - - -
02/04:00am 8.6 W 8 11 1017.4 - 1.2 - - - - - - -
02/03:30am 8.2 WNW 8 9 1017.4 - 1.2 - - - - - - -
02/03:00am 7.9 WNW 6 8 1017.6 - 1.2 - - - - - - -
02/02:30am 8.1 WNW 7 9 1017.7 - 1.2 - - - - - - -
02/02:00am 8.3 WNW 8 11 1017.8 - 1.2 - - - - - - -
02/01:30am 8.0 W 8 11 1018.0 - 1.2 - - - - - - -
02/01:00am 7.8 NW 6 7 1017.9 - 1.2 - - - - - - -
02/12:30am 7.8 NNW 6 7 1018.4 - 1.2 - - - - - - -
02/12:00am 7.9 NNW 6 7 1018.2 - 1.2 - - - - - - -
 
Date/Time
CST
Temp

°C
Wind Pressure Rain
since 9am
mm
Weather Cloud Vis
km
Sea
Height
m
Swell
Dir
 
Speed
knots
Gust
knots
hPa Trend Height
m
Period
s
Dir
01/11:30pm 8.0 NW 6 8 1018.2 - 1.2 - - - - - - -
01/11:00pm 8.1 NNW 5 7 1018.3 - 1.2 - - - - - - -
01/10:30pm 8.2 N 4 5 1018.1 - 1.2 - - - - - - -
01/10:00pm 8.4 WNW 6 8 1018.6 - 1.2 - - - - - - -
01/09:30pm 8.8 WNW 6 9 1018.3 - 1.2 - - - - - - -
01/09:00pm 8.7 NW 4 5 1018.2 - 1.2 - - - - - - -
01/08:30pm 8.7 NNW 4 5 1017.9 - 1.0 - - - - - - -
01/08:00pm 8.9 N 5 8 1017.7 - 1.0 - - - - - - -
01/07:30pm 9.1 N 7 9 1017.2 - 0.8 - - - - - - -
01/07:00pm 9.2 N 4 6 1017.3 - 0.2 - - - - - - -
01/06:30pm 9.3 WSW 4 6 1017.0 - 0.2 - - - - - - -
01/06:00pm 9.5 N 4 5 1016.8 - 0.2 - - - - - - -
01/05:30pm 9.6 N 7 9 1016.5 - 0.2 - - - - - - -
01/05:00pm 9.9 NW 1 4 1016.7 - 0.2 - - - - - - -
01/04:30pm 9.9 N 6 8 1016.4 - 0.2 - - - - - - -
01/04:00pm 10.3 N 3 4 1016.3 - 0.2 - - - - - - -
01/03:30pm 10.5 N 3 6 1015.9 - 0.2 - - - - - - -
01/03:00pm 10.9 NNE 4 8 1016.8 - 0.2 - - - - - - -
01/02:30pm 10.9 SE 6 7 1015.5 - 0.2 - - - - - - -
01/02:00pm 10.7 SE 6 8 1015.7 - 0.0 - - - - - - -
01/01:30pm 11.1 S 4 6 1017.2 - 0.0 - - - - - - -
01/01:00pm 11.3 S 10 13 1016.7 - 0.0 - - - - - - -
01/12:30pm 11.5 S 11 13 1016.7 - 0.0 - - - - - - -
01/12:00pm 11.5 SSW 12 14 1018.0 - 0.0 - - - - - - -
01/11:30am 11.5 S 13 16 1017.4 - 0.0 - - - - - - -
01/11:00am 11.5 S 14 18 1016.9 - 0.0 - - - - - - -
01/10:30am 11.7 S 12 15 1016.8 - 0.0 - - - - - - -
01/10:00am 11.5 S 13 15 1016.6 - 0.0 - - - - - - -
01/09:30am 11.4 S 13 17 1016.9 - 0.0 - - - - - - -
01/09:00am 11.4 S 13 15 1016.2 - 2.8 Haze Cloudy 5 - - - -
01/08:30am 11.6 S 14 17 1016.1 - 2.8 - - - - - - -
01/08:00am 11.2 SSW 16 21 1015.9 - 2.8 - - - - - - -
01/07:30am 11.2 S 16 19 1015.6 - 2.8 - - - - - - -
01/07:00am 11.7 S 17 21 1014.4 - 2.8 - - - - - - -
01/06:30am 11.5 S 17 21 1014.0 - 2.8 - - - - - - -
01/06:00am 11.2 S 16 19 1013.7 - 2.6 - - - - - - -
01/05:30am 11.1 SSW 21 27 1013.5 - 2.4 - - - - - - -
01/05:00am 11.3 SW 16 19 1013.2 - 1.8 - - - - - - -
01/04:30am 11.3 SW 18 24 1012.4 - 1.8 - - - - - - -
01/04:00am 11.5 SW 19 25 1012.1 - 1.6 - - - - - - -
01/03:30am 11.7 SW 23 27 1011.7 - 1.4 - - - - - - -
01/03:29am 11.7 SW 23 27 1011.7 - 1.4 - - - - - - -
01/03:18am 13.5 WSW 20 33 1011.6 - 0.4 - - - - - - -
01/03:17am 12.6 WSW 23 33 1011.6 - 0.6 - - - - - - -
01/03:16am 13.5 W 18 33 1011.6 - 0.4 - - - - - - -
01/03:00am 14.7 WNW 18 27 1010.5 - 0.0 - - - - - - -
01/02:40am 14.5 WNW 20 30 1010.5 - 0.0 - - - - - - -
01/02:38am 14.5 WNW 20 30 1010.5 - 0.0 - - - - - - -
01/02:30am 14.6 WNW 21 30 1010.3 - 0.0 - - - - - - -
01/02:21am 14.8 WNW 19 30 1010.3 - 0.0 - - - - - - -
01/02:19am 14.8 WNW 19 30 1010.3 - 0.0 - - - - - - -
01/02:00am 14.6 NW 16 25 1010.5 - 0.0 - - - - - - -
01/01:30am 14.3 NW 17 25 1010.2 - 0.0 - - - - - - -
01/01:00am 13.8 NW 18 25 1010.9 - 0.0 - - - - - - -
01/12:30am 13.7 NW 14 20 1011.1 - 0.0 - - - - - - -
01/12:00am 14.4 NW 14 20 1011.5 - 0.0 - - - - - - -
 
Date/Time
CST
Temp

°C
Wind Pressure Rain
since 9am
mm
Weather Cloud Vis
km
Sea
Height
m
Swell
Dir
 
Speed
knots
Gust
knots
hPa Trend Height
m
Period
s
Dir
31/11:30pm 14.4 NNW 7 13 1012.0 - 0.0 - - - - - - -
31/11:00pm 14.4 NNW 9 19 1011.9 - 0.0 - - - - - - -
31/10:30pm 12.5 N 10 17 1012.1 - 0.0 - - - - - - -
31/10:00pm 11.8 NNE 7 9 1012.5 - 0.0 - - - - - - -
31/09:30pm 11.6 NE 7 7 1013.0 - 0.0 - - - - - - -
31/09:00pm 12.5 NNE 8 9 1013.3 - 0.0 - - - - - - -
31/08:30pm 12.7 N 7 9 1013.6 - 0.0 - - - - - - -
31/08:00pm 12.5 N 8 9 1013.6 - 0.0 - - - - - - -
31/07:30pm 12.3 NNE 8 10 1013.6 - 0.0 - - - - - - -
31/07:00pm 12.5 N 5 6 1014.0 - 0.0 - - - - - - -
31/06:30pm 12.8 N 5 6 1014.0 - 0.0 - - - - - - -
31/06:00pm 12.9 N 3 5 1014.5 - 0.0 - - - - - - -
31/05:30pm 13.3 N 4 6 1014.0 - 0.0 - - - - - - -
31/05:00pm 14.0 NNW 8 13 1014.0 - 0.0 - - - - - - -
31/04:30pm 14.2 NW 10 16 1014.8 - 0.0 - - - - - - -
31/04:00pm 14.4 NW 13 22 1014.9 - 0.0 - - - - - - -
31/03:30pm 14.5 NW 11 15 1015.4 - 0.0 - - - - - - -
31/03:00pm 14.5 NW 14 20 1015.3 - 0.0 - - - - - - -
31/02:30pm 14.6 NNW 11 16 1015.5 - 0.0 - - - - - - -
31/02:00pm 14.2 NNW 14 22 1015.8 - 0.0 - - - - - - -
31/01:30pm 13.6 NW 14 20 1016.8 - 0.0 - - - - - - -
31/01:00pm 13.4 NNW 13 20 1017.3 - 0.0 - - - - - - -
31/12:30pm 13.2 NW 12 16 1018.0 - 0.0 - - - - - - -
31/12:00pm 12.5 N 9 11 1018.8 - 0.0 - - - - - - -
31/11:30am 12.3 NNE 10 12 1019.5 - 0.0 - - - - - - -
31/11:00am 12.2 N 6 7 1020.2 - 0.0 - - - - - - -
31/10:30am 11.1 N 6 7 1020.5 - 0.0 - - - - - - -
31/10:00am 9.1 N 6 8 1021.0 - 0.0 - - - - - - -
31/09:30am 8.2 N 8 11 1021.2 - 0.0 - - - - - - -
31/09:00am 7.5 N 6 7 1021.6 - 0.0 - - - - - - -
31/08:30am 6.3 N 7 8 1021.5 - 0.0 - - - - - - -
31/08:00am 5.2 N 7 8 1021.8 - 0.0 - - - - - - -
31/07:30am 3.8 N 8 9 1021.6 - 0.0 - - - - - - -
31/07:00am 4.8 N 6 8 1021.3 - 0.0 - - - - - - -
31/06:30am 5.2 NNW 6 8 1021.3 - 0.0 - - - - - - -
31/06:00am 4.9 NNW 7 7 1021.3 - 0.0 Fine Mostly clear 15 - - - -
31/05:30am 5.0 N 7 9 1021.0 - 0.0 - - - - - - -
31/05:00am 5.0 NNW 3 6 1020.8 - 0.0 - - - - - - -
31/04:30am 5.8 NNW 5 6 1020.9 - 0.0 - - - - - - -
31/04:00am 6.5 NW 5 7 1021.1 - 0.0 - - - - - - -
31/03:30am 6.9 N 5 6 1021.4 - 0.0 - - - - - - -
31/03:00am 8.5 W 4 6 1021.6 - 0.0 - - - - - - -
31/02:30am 9.9 S 8 11 1021.6 - 0.0 - - - - - - -
31/02:00am 9.4 SSW 6 8 1021.8 - 0.0 - - - - - - -
31/01:30am 9.5 SSW 8 9 1021.9 - 0.0 - - - - - - -
31/01:00am 10.0 S 8 10 1021.9 - 0.0 - - - - - - -
31/12:30am 11.1 SSW 10 12 1022.0 - 0.0 - - - - - - -
31/12:00am 11.2 S 11 13 1022.0 - 0.0 - - - - - - -
 
Date/Time
CST
Temp

°C
Wind Pressure Rain
since 9am
mm
Weather Cloud Vis
km
Sea
Height
m
Swell
Dir
 
Speed
knots
Gust
knots
hPa Trend Height
m
Period
s
Dir
30/11:30pm 11.2 S 12 14 1022.0 - 0.0 - - - - - - -
30/11:00pm 11.2 S 13 16 1022.0 - 0.0 - - - - - - -
30/10:30pm 11.0 S 12 14 1022.2 - 0.0 - - - - - - -
30/10:00pm 11.3 S 12 15 1021.9 - 0.0 - - - - - - -
30/09:30pm 11.6 SSW 15 17 1021.8 - 0.0 - - - - - - -
30/09:00pm 11.7 SSW 17 20 1021.2 - 0.0 - - - - - - -
30/08:30pm 12.0 SSW 16 20 1020.9 - 0.0 - - - - - - -
30/08:00pm 12.4 SSW 17 22 1020.6 - 0.0 - - - - - - -
30/07:30pm 12.5 SSW 19 23 1020.1 - 0.0 - - - - - - -
30/07:00pm 12.5 SSW 20 25 1019.7 - 0.0 - - - - - - -
30/06:30pm 12.1 SW 14 18 1019.3 - 0.0 - - - - - - -
30/06:00pm 11.8 SW 16 20 1018.9 - 0.0 - - - - - - -
30/05:30pm 12.3 SW 20 26 1018.3 - 0.0 - - - - - - -
30/05:00pm 12.6 SW 24 34 1017.6 - 0.0 - - - - - - -
30/04:59pm 13.0 SW 25 34 1017.4 - 0.0 - - - - - - -
30/04:58pm 12.8 SW 24 34 1017.6 - 0.0 - - - - - - -
30/04:57pm 13.0 SW 25 34 1017.4 - 0.0 - - - - - - -
30/04:55pm 13.6 W 19 29 1017.4 - 0.0 - - - - - - -
30/04:30pm 14.3 WNW 13 20 1016.7 - 0.0 - - - - - - -
30/04:00pm 14.2 NW 16 24 1016.4 - 0.0 - - - - - - -
30/03:30pm 14.4 WNW 19 25 1016.3 - 0.0 - - - - - - -
30/03:00pm 14.9 WNW 16 22 1016.1 - 0.0 - - - - - - -
30/02:50pm 14.6 NW 17 27 1016.0 - 0.0 - - - - - - -
30/02:31pm 14.4 NW 19 29 1015.8 - 0.0 - - - - - - -
30/02:30pm 14.4 NW 19 28 1015.8 - 0.0 - - - - - - -
30/02:02pm 15.0 NW 18 28 1016.0 - 0.0 - - - - - - -
30/02:01pm 15.2 NW 19 29 1015.9 - 0.0 - - - - - - -
30/02:00pm 15.2 WNW 19 28 1016.0 - 0.0 - - - - - - -
30/01:30pm 14.2 NW 21 31 1015.9 - 0.0 - - - - - - -
30/01:09pm 14.7 NW 21 31 1015.8 - 0.0 - - - - - - -
30/01:07pm 14.7 NW 21 31 1015.8 - 0.0 - - - - - - -
30/01:00pm 14.7 NW 21 29 1015.9 - 0.0 - - - - - - -
30/12:37pm 14.3 NW 19 29 1016.2 - 0.0 - - - - - - -
30/12:35pm 14.3 NW 18 29 1016.2 - 0.0 - - - - - - -
30/12:30pm 14.2 NW 19 26 1016.2 - 0.0 - - - - - - -
30/12:05pm 14.1 NW 17 30 1016.5 - 0.0 - - - - - - -
30/12:03pm 14.1 NW 17 30 1016.5 - 0.0 - - - - - - -
30/12:00pm 13.9 NW 17 25 1016.7 - 0.0 - - - - - - -
30/11:34am 13.9 NW 21 31 1016.8 - 0.0 - - - - - - -
30/11:33am 13.8 NW 21 31 1016.8 - 0.0 - - - - - - -
30/11:30am 13.9 NW 22 31 1016.6 - 0.0 - - - - - - -
30/11:18am 14.0 NNW 19 30 1016.7 - 0.0 - - - - - - -
30/11:16am 14.0 NNW 19 30 1016.7 - 0.0 - - - - - - -
30/11:00am 13.7 NNW 17 25 1016.6 - 0.0 - - - - - - -
30/10:31am 13.1 NNW 17 27 1017.1 - 0.0 - - - - - - -
30/10:30am 13.1 NNW 17 27 1017.2 - 0.0 - - - - - - -
30/10:00am 13.2 NNW 20 31 1016.4 - 0.0 - - - - - - -
30/09:32am 12.6 NNW 18 28 1016.5 - 0.0 - - - - - - -
30/09:30am 12.5 NNW 19 28 1016.5 - 0.0 - - - - - - -
30/09:00am 12.6 NNW 20 27 1016.9 - 0.0 Fine Mostly cloudy 10 - - - -
30/08:44am 12.8 NNW 19 29 1017.2 - 0.0 - - - - - - -
30/08:42am 12.8 NNW 19 29 1017.2 - 0.0 - - - - - - -
30/08:30am 12.7 NNW 24 32 1017.0 - 0.0 - - - - - - -
30/08:00am 12.7 NNW 22 29 1017.2 - 0.0 - - - - - - -

Other Formats:

Comma delimited format used in spreadsheet applications
http://www.bom.gov.au/fwo/IDS60701/IDS60701.94677.axf

JavaScript Object Notation format (JSON) in row-major order
http://www.bom.gov.au/fwo/IDS60701/IDS60701.94677.json